Albertson, NY

6:43 AM EST on January 26, 2015 (GMT -0500)
Albertson | Change Station
CLOSE
Current Station
Personal Weather Station
Location: Albertson, NY
Elevation: 151 ft
Nearby Weather Stations

Elev 151 ft 40.77 °N, 73.64 °W | Updated 5 seconds ago

Overcast
Overcast
24.3 °F
Feels Like 15 °F
N
8.3
Wind Variable Wind from NE
Gusts 15.2 mph

Today
High -- | Low -- °F
--% Chance of Precip.
Yesterday
High -- | Low -- °F
Precip. -- in
7:10 AM 5:04 PM
Waxing Crescent, 42% visible
Pressure 30.01 in
Visibility 8.0 miles
Clouds Overcast 3500 ft
Windchill 15 °F
Dew Point 8 °F
Humidity 49%
Rainfall 0.00 in
Snow Depth Not available.
UV 0 out of 12
Pollen .10 out of 12
Air Quality Not available.
Flu Activity Not available.
METAR KJFK 261051Z 05014KT 8SM -SN OVC035 M03/M10 A3001 RMK AO2 SLP163 P0000 T10331100 $

More Conditions Fewer Conditions

Pressure 30.01 in
Visibility 8.0 miles
Clouds Overcast 3500 ft
Windchill 15 °F
Dew Point 8 °F
Humidity 49%
Rainfall 0.00 in
Snow Depth Not available.
UV 0 out of 12
Pollen .10 out of 12
Air Quality Not available.
Flu Activity Not available.
METAR KJFK 261051Z 05014KT 8SM -SN OVC035 M03/M10 A3001 RMK AO2 SLP163 P0000 T10331100 $

More Conditions Fewer Conditions

10-Day Weather Forecast

Almanac

Astronomy

Jan. 26, 2015 Rise Set
Actual Time
Civil Twilight
Nautical Twilight
Astronomical Twilight
Moon
Length of Visible Light
Length of Day
Tomorrow will be .
, % of the Moon is Illuminated

Today's Extremes

State Highs State Lows

Community

WunderPhotos

Upload Photos

1,790,172 photos uploaded!

WunderBlogs® & News

Nearby

Air Quality

  Air Quality AQ Index Pollutant
Not available.

Snow Depth

Station Depth Elevation

Earthquake Activity

City Distance Mag. Time & Date
Minimum magnitude displayed is 2.5.

Coastal Water Temperatures

Place Temperature

Nearby Weather Stations